Terminal Aerodrome Forecast
Issued by NWS

Home | Current Version | Previous Version | Text Only | Print | Product List | Glossary On
Versions: 1 2 3 4 5 6 7 8 9 10 11 12 13 14 15
000
FTUS46 KSGX 230900 AAA
TAFSNA
TAF AMD
KSNA 230914Z 2309/2406 VRB04KT P6SM FEW010
     FM231200 VRB03KT P6SM BKN009
     FM231600 VRB06KT P6SM FEW010
     FM231900 23008KT P6SM SKC
     FM240100 VRB04KT P6SM FEW009=

USA.gov is the U.S. government's official web portal to all federal, state and local government web resources and services.